Floris, Iowa
Current Conditions -  °F | °C
As of 2:53 PM on Thursday 20 Nov 2014 (Local Time) from KOTM Reporting Station
Clear Clear  
Wind Chill: 22°   Ceiling: Unl
Heat Index: 30°   Visibility: 10mi
Dew Point: 12°   Wind: 9mph
Humidity: 47%   Direction: 310°NW
Pressure: 30.19"   Gusts: NA
Location:  40.87°N, 92.33°W
Report Text: KOTM 202053Z AUTO 31008KT 10SM CLR M01/M11 A3019 RMK AO2 SLP235 T10111111 55002
Loading
Personal Weather Stations






























Interactive Weather Map New forecast layout! Learn more

10-Day Weather Forecast

Advertisements
Track Severe Weather on mobile